createdAt,value
2022-09-27T00:00:16.290Z,12.51252
2022-09-27T00:05:17.244Z,12.43725
2022-09-27T00:10:18.173Z,12.43693
2022-09-27T00:15:19.083Z,12.44985
2022-09-27T00:20:20.020Z,12.47214
2022-09-27T00:25:20.946Z,12.39461
2022-09-27T00:30:21.935Z,12.37264
2022-09-27T00:35:22.853Z,12.35197
2022-09-27T00:40:23.805Z,12.32257
2022-09-27T00:45:24.770Z,12.30383
2022-09-27T00:50:25.743Z,12.26927
2022-09-27T00:55:26.679Z,12.21726
2022-09-27T01:00:27.641Z,12.21823
2022-09-27T01:05:28.553Z,12.2024
2022-09-27T01:10:29.480Z,12.20983
2022-09-27T01:15:30.509Z,12.27444
2022-09-27T01:20:31.501Z,12.25958
2022-09-27T01:25:32.425Z,12.2725
2022-09-27T01:30:33.790Z,12.26087
2022-09-27T01:35:34.751Z,12.27282
2022-09-27T01:40:35.765Z,12.27444
2022-09-27T01:45:36.739Z,12.2473
2022-09-27T01:50:37.679Z,12.19949
2022-09-27T01:55:38.597Z,12.18463
2022-09-27T02:00:39.520Z,12.2095
2022-09-27T02:05:40.437Z,12.27702
2022-09-27T02:10:41.792Z,12.31902
2022-09-27T02:15:42.826Z,12.3846
2022-09-27T02:20:43.830Z,12.42078
2022-09-27T02:25:44.706Z,12.46923
2022-09-27T02:30:45.753Z,12.50671
2022-09-27T02:35:46.754Z,12.49056
2022-09-27T02:40:47.955Z,12.4744
2022-09-27T02:45:49.073Z,12.49314
2022-09-27T02:50:50.149Z,12.51478
2022-09-27T02:55:51.194Z,12.45308
2022-09-27T03:00:52.174Z,12.40462
2022-09-27T03:05:53.091Z,12.37943
2022-09-27T03:10:54.061Z,12.39396
2022-09-27T03:15:59.368Z,12.3846
2022-09-27T03:21:02.508Z,12.35035
2022-09-27T03:26:03.434Z,12.40236
2022-09-27T03:31:04.385Z,12.3833
2022-09-27T03:36:05.435Z,12.36424
2022-09-27T03:41:06.367Z,12.28445
2022-09-27T03:46:07.409Z,12.29866
2022-09-27T03:51:08.491Z,12.19497
2022-09-27T03:56:09.579Z,12.13843
2022-09-27T04:01:10.602Z,12.11001
2022-09-27T04:06:11.628Z,12.11873
2022-09-27T04:11:12.569Z,12.14942
2022-09-27T04:16:13.493Z,12.16912
2022-09-27T04:21:14.470Z,12.12907
2022-09-27T04:26:15.408Z,12.12357
2022-09-27T04:31:16.460Z,12.11453
2022-09-27T04:36:17.405Z,12.01955
2022-09-27T04:41:18.331Z,11.99759
2022-09-27T04:46:19.293Z,12.04766
2022-09-27T04:51:20.285Z,12.0693
2022-09-27T04:56:21.211Z,12.04733
2022-09-27T05:01:22.171Z,11.97949
2022-09-27T05:06:23.173Z,11.89421
2022-09-27T05:11:24.066Z,11.87935
2022-09-27T05:16:25.063Z,11.83477
2022-09-27T05:21:26.063Z,11.75659
2022-09-27T05:26:26.981Z,11.69554
2022-09-27T05:31:28.071Z,11.53014
2022-09-27T05:36:29.041Z,11.53401
2022-09-27T05:41:30.182Z,11.47877
2022-09-27T05:46:31.344Z,11.46165
2022-09-27T05:51:32.308Z,11.58667
2022-09-27T05:56:33.219Z,11.5534
2022-09-27T06:01:34.201Z,11.56083
2022-09-27T06:06:35.308Z,11.62156
2022-09-27T06:11:36.216Z,11.66485
2022-09-27T06:16:37.224Z,11.57149
2022-09-27T06:21:38.218Z,11.53434
2022-09-27T06:26:39.115Z,11.50882
2022-09-27T06:31:40.007Z,11.45939
2022-09-27T06:36:41.001Z,11.41578
2022-09-27T06:41:42.271Z,11.33405
2022-09-27T06:46:43.299Z,11.34794
2022-09-27T06:51:44.337Z,11.41675
2022-09-27T06:56:45.300Z,11.30498
2022-09-27T07:01:46.378Z,11.29593
2022-09-27T07:06:47.487Z,11.32888
2022-09-27T07:11:48.428Z,11.38412
2022-09-27T07:16:49.445Z,11.46262
2022-09-27T07:21:50.496Z,11.55372
2022-09-27T07:26:51.446Z,11.43742
2022-09-27T07:31:52.379Z,11.43936
2022-09-27T07:36:53.281Z,11.52949
2022-09-27T07:41:54.204Z,11.56664
2022-09-27T07:46:55.098Z,11.50429
2022-09-27T07:51:56.076Z,11.52335
2022-09-27T07:56:57.010Z,11.63642
2022-09-27T08:01:57.974Z,11.67486
2022-09-27T08:06:58.951Z,11.6529
2022-09-27T08:11:59.873Z,11.73656
2022-09-27T08:17:00.791Z,11.74206
2022-09-27T08:22:01.820Z,11.8002
2022-09-27T08:27:02.864Z,11.77016
2022-09-27T08:32:03.825Z,11.68488
2022-09-27T08:37:04.805Z,11.639
2022-09-27T08:42:05.739Z,11.69974
2022-09-27T08:47:06.663Z,11.66937
2022-09-27T08:52:07.579Z,11.67454
2022-09-27T08:57:08.521Z,11.9375
2022-09-27T09:02:10.149Z,11.98983
2022-09-27T09:07:14.216Z,11.91327
2022-09-27T09:12:15.159Z,11.9039
2022-09-27T09:17:16.078Z,11.96173
2022-09-27T09:22:17.019Z,12.03409
2022-09-27T09:27:17.953Z,12.09353
2022-09-27T09:32:18.852Z,12.24988
2022-09-27T09:37:19.768Z,12.27314
2022-09-27T09:42:20.685Z,12.1772
2022-09-27T09:47:21.613Z,12.08319
2022-09-27T09:52:22.549Z,12.15491
2022-09-27T09:57:23.447Z,12.32871
2022-09-27T10:02:24.456Z,12.86432
2022-09-27T10:07:25.379Z,13.27912
2022-09-27T10:12:26.287Z,13.01163
2022-09-27T10:17:27.270Z,12.72283
2022-09-27T10:22:28.243Z,12.57035
2022-09-27T10:27:29.131Z,12.55129
2022-09-27T10:32:30.083Z,12.7099
2022-09-27T10:37:30.995Z,12.87595
2022-09-27T10:42:31.947Z,13.15765
2022-09-27T10:47:32.965Z,13.72299
2022-09-27T10:52:33.978Z,14.01923
2022-09-27T10:57:34.909Z,13.90713
2022-09-27T11:02:35.849Z,13.66387
2022-09-27T11:07:36.780Z,13.85641
2022-09-27T11:12:37.701Z,14.20014
2022-09-27T11:17:38.610Z,14.34325
2022-09-27T11:22:39.590Z,14.1785
2022-09-27T11:27:40.523Z,14.11582
2022-09-27T11:32:41.691Z,14.01245
2022-09-27T11:37:42.961Z,13.86384
2022-09-27T11:42:43.897Z,13.86675
2022-09-27T11:47:44.895Z,13.54014
2022-09-27T11:52:45.914Z,12.93927
2022-09-27T11:57:46.803Z,12.48377
2022-09-27T12:02:47.827Z,12.19723
2022-09-27T12:07:48.771Z,11.8884
2022-09-27T12:12:49.716Z,11.73269
2022-09-27T12:17:50.657Z,11.60767
2022-09-27T12:22:59.132Z,11.60702
2022-09-27T12:28:00.770Z,11.83412
2022-09-27T12:33:01.715Z,12.05832
2022-09-27T12:38:02.637Z,12.22663
2022-09-27T12:43:03.528Z,12.39396
2022-09-27T12:48:04.491Z,12.60007
2022-09-27T12:53:05.483Z,12.91989
2022-09-27T12:58:06.513Z,13.14053
2022-09-27T13:03:16.633Z,13.17057
2022-09-27T13:08:18.540Z,14.06381
2022-09-27T13:13:19.459Z,13.59022
2022-09-27T13:18:20.395Z,13.2158
2022-09-27T13:23:21.339Z,12.89243
2022-09-27T13:28:22.261Z,12.77161
2022-09-27T13:33:23.201Z,13.34502
2022-09-27T13:38:24.130Z,13.43806
2022-09-27T13:43:25.071Z,13.43935
2022-09-27T13:48:25.986Z,13.33016
2022-09-27T13:53:26.961Z,13.23971
2022-09-27T13:58:27.944Z,13.20288
2022-09-27T14:03:28.879Z,13.1457
2022-09-27T14:08:29.807Z,13.08658
2022-09-27T14:13:30.774Z,12.97965
2022-09-27T14:18:31.678Z,12.99128
2022-09-27T14:23:32.685Z,12.86561
2022-09-27T14:28:33.602Z,12.68115
2022-09-27T14:33:34.584Z,12.62559
2022-09-27T14:38:38.519Z,12.58133
2022-09-27T14:43:39.967Z,12.61751
2022-09-27T14:48:40.991Z,12.55452
2022-09-27T14:53:42.422Z,12.59555
2022-09-27T14:58:47.489Z,12.63528
2022-09-27T15:03:49.243Z,12.84655
2022-09-27T15:08:50.392Z,12.95801
2022-09-27T15:13:51.344Z,12.89469
2022-09-27T15:18:52.273Z,12.88371
2022-09-27T15:23:53.199Z,12.79648
2022-09-27T15:28:54.118Z,12.53514
2022-09-27T15:33:55.045Z,12.38104
2022-09-27T15:38:55.982Z,12.27411
2022-09-27T15:43:56.955Z,12.19303
2022-09-27T15:48:57.901Z,12.07996
2022-09-27T15:53:58.849Z,12.03441
2022-09-27T15:58:59.835Z,11.96722
2022-09-27T16:04:00.769Z,11.99242
2022-09-27T16:09:01.902Z,12.08965
2022-09-27T16:14:02.836Z,12.15459
2022-09-27T16:19:03.854Z,12.19335
2022-09-27T16:24:06.330Z,12.19077
2022-09-27T16:29:07.421Z,12.09708
2022-09-27T16:34:08.344Z,12.18269
2022-09-27T16:39:09.285Z,12.08707
2022-09-27T16:44:10.842Z,11.97368
2022-09-27T16:49:11.729Z,11.8997
2022-09-27T16:54:12.773Z,11.85997
2022-09-27T16:59:13.748Z,11.85028
2022-09-27T17:04:14.651Z,11.76532
2022-09-27T17:09:15.566Z,11.66388
2022-09-27T17:14:17.080Z,11.6361
2022-09-27T17:19:18.209Z,11.58376
2022-09-27T17:24:19.187Z,11.51172
2022-09-27T17:29:20.143Z,11.5534
2022-09-27T17:34:21.083Z,11.48879
2022-09-27T17:39:22.002Z,11.48847
2022-09-27T17:44:23.020Z,11.52368
2022-09-27T17:49:23.942Z,11.56277
2022-09-27T17:54:24.863Z,11.53821
2022-09-27T17:59:25.772Z,11.42806
2022-09-27T18:04:26.734Z,11.39155
2022-09-27T18:09:27.649Z,11.40415
2022-09-27T18:14:28.574Z,11.37185
2022-09-27T18:19:29.493Z,11.29399
2022-09-27T18:24:30.427Z,11.07529
2022-09-27T18:29:31.354Z,10.87274
2022-09-27T18:34:32.271Z,10.72447
2022-09-27T18:39:33.212Z,10.69023
2022-09-27T18:44:34.140Z,10.61334
2022-09-27T18:49:35.114Z,10.57748
2022-09-27T18:54:36.115Z,10.56973
2022-09-27T18:59:37.047Z,10.64242
2022-09-27T19:04:37.987Z,10.48025
2022-09-27T19:09:38.972Z,10.36945
2022-09-27T19:14:39.899Z,10.34845
2022-09-27T19:19:40.819Z,10.31001
2022-09-27T19:24:41.803Z,10.28804
2022-09-27T19:29:43.256Z,10.24928
2022-09-27T19:34:44.167Z,10.15624
2022-09-27T19:39:45.111Z,10.07613
2022-09-27T19:44:46.049Z,10.14493
2022-09-27T19:49:47.115Z,10.09745
2022-09-27T19:54:48.037Z,10.09292
2022-09-27T19:59:49.035Z,10.02476
2022-09-27T20:04:49.950Z,9.92882
2022-09-27T20:09:50.862Z,9.91138
2022-09-27T20:14:51.850Z,9.9327
2022-09-27T20:19:52.776Z,9.87616
2022-09-27T20:24:53.680Z,9.79541
2022-09-27T20:29:54.652Z,9.75696
2022-09-27T20:34:55.559Z,9.71755
2022-09-27T20:39:56.487Z,9.72014
2022-09-27T20:44:57.395Z,9.70851
2022-09-27T20:49:58.325Z,9.64745
2022-09-27T20:54:59.263Z,9.51759
2022-09-27T21:00:00.192Z,9.47721
2022-09-27T21:05:01.139Z,9.50402
2022-09-27T21:10:02.198Z,9.47011
2022-09-27T21:15:03.097Z,9.37449
2022-09-27T21:20:04.014Z,9.33895
2022-09-27T21:25:04.994Z,9.29017
2022-09-27T21:30:05.908Z,9.29082
2022-09-27T21:35:06.878Z,9.27435
2022-09-27T21:40:07.873Z,9.17162
2022-09-27T21:45:08.783Z,9.03207
2022-09-27T21:50:09.682Z,8.90124
2022-09-27T21:55:10.591Z,8.81273
2022-09-27T22:00:11.524Z,8.84535
2022-09-27T22:05:12.439Z,8.9035
2022-09-27T22:10:13.354Z,8.89316
2022-09-27T22:15:14.320Z,8.92256
2022-09-27T22:20:15.238Z,8.97877
2022-09-27T22:25:16.156Z,8.97166
2022-09-27T22:30:17.086Z,8.95712
2022-09-27T22:35:18.023Z,8.91997
2022-09-27T22:40:19.014Z,8.91319
2022-09-27T22:45:19.965Z,8.8657
2022-09-27T22:50:20.901Z,8.79561
2022-09-27T22:55:21.832Z,8.76912
2022-09-27T23:00:22.806Z,8.72066
2022-09-27T23:05:23.773Z,8.67867
2022-09-27T23:10:24.715Z,8.6399
2022-09-27T23:15:25.632Z,8.59274
2022-09-27T23:20:26.550Z,8.52749
2022-09-27T23:25:27.522Z,8.50907
2022-09-27T23:30:28.461Z,8.53492
2022-09-27T23:35:29.376Z,8.47742
2022-09-27T23:40:30.424Z,8.49422
2022-09-27T23:45:31.459Z,8.55139
2022-09-27T23:50:32.496Z,8.58305
2022-09-27T23:55:33.727Z,8.63829
